Meteo Giornale » Osservazioni meteo Italia » Trapani-Birgi
ore: 10:55 - Osservazioni Meteo Trapani-Birgi
Lat. 37° 55' N Lon. 12° 30' E Alt. 7 metri s.l.m.
31 °C
Sereno
Temp. 24 Ore
20 °C
34 °C
Ovest/Nord-Ovest
9.3 Km/h
Dew point 20 °C
Umidità 52 %
Visibilità 10 Km
Il sole sorge alle ore 06:40
Il sole tramonta alle ore 19:38
| Data e Ora | Cielo e Fenomeni | T °C | DP °C | Um. % | Pres. hPa | Vis. km | Vento km/h | |
|---|---|---|---|---|---|---|---|---|
| Oggi h: 10:55 | Sereno | 31 | 20 | 52 | 1019 | 10 | O/NO 9.3 | |
| Oggi h: 09:55 | Sereno | 29 | 21 | 62 | 1018 | 10 | NO 7.4 | |
| Oggi h: 08:55 | Sereno | 26 | 21 | 73 | 1018 | 10 | N 1.8 | |
| Oggi h: 07:55 | Sereno | 22 | 20 | 88 | 1018 | 10 | N 1.8 | |
| Oggi h: 06:55 | Sereno | 20 | 18 | 88 | 1018 | 10 | N 1.8 | |
| Oggi h: 05:55 | Sereno | 22 | 20 | 88 | 1017 | 10 | N 1.8 | |
| Oggi h: 04:55 | Sereno | 22 | 20 | 88 | 1017 | 10 | N 3.7 | |
| Oggi h: 03:55 | Sereno | 23 | 21 | 88 | 1018 | 10 | N 1.8 | |
| Oggi h: 02:55 | Sereno | 24 | 22 | 88 | 1018 | 10 | N 5.5 | |
| Oggi h: 01:55 | Sereno | 23 | 21 | 88 | 1018 | 10 | N 5.5 | |
| Oggi h: 00:55 | Sereno | 23 | 21 | 88 | 1018 | 10 | N 1.8 | |
| Ieri h: 23:55 | Sereno | 24 | 22 | 88 | 1018 | 10 | N 1.8 | |
| Ieri h: 22:55 | Sereno | 25 | 22 | 83 | 1017 | 10 | N 1.8 | |
| Ieri h: 21:55 | Sereno | 26 | 23 | 83 | 1017 | 10 | N 3.7 | |
| Ieri h: 20:55 | Sereno | 27 | 23 | 78 | 1018 | 10 | N/NE 9.3 | |
| Ieri h: 19:55 | Sereno | 28 | 23 | 74 | 1017 | 10 | N 16.7 | |
| Ieri h: 18:55 | Sereno | 29 | 24 | 74 | 1017 | 10 | N 25.9 | |
| Ieri h: 17:55 | Sereno | 30 | 23 | 66 | 1017 | 10 | N 25.9 | |
| Ieri h: 16:55 | Sereno | 30 | 23 | 66 | 1017 | 10 | N 27.8 | |
| Ieri h: 15:55 | Sereno | 30 | 21 | 58 | 1016 | 10 | N 27.8 | |
| Ieri h: 14:55 | Sereno | 32 | 18 | 43 | 1017 | 10 | N 25.9 | |
| Ieri h: 13:55 | Sereno | 33 | 20 | 46 | 1016 | 10 | N 24 | |
| Ieri h: 12:55 | Sereno | 34 | 17 | 36 | 1017 | 10 | N 18.5 | |
| Ieri h: 11:55 | Sereno | 34 | 13 | 28 | 1017 | 10 | NE 14.8 | |



